sensor_id;sensor_type;location;lat;lon;timestamp;P1;durP1;ratioP1;P2;durP2;ratioP2
9034;SDS011;4552;43.422;24.592;2024-02-21T00:02:50;17.93;;;9.77;;
9034;SDS011;4552;43.422;24.592;2024-02-21T00:05:18;16.60;;;10.23;;
9034;SDS011;4552;43.422;24.592;2024-02-21T00:07:45;14.17;;;8.87;;
9034;SDS011;4552;43.422;24.592;2024-02-21T00:23:40;16.33;;;8.47;;
9034;SDS011;4552;43.422;24.592;2024-02-21T00:39:27;14.50;;;8.80;;
9034;SDS011;4552;43.422;24.592;2024-02-21T00:41:54;19.17;;;9.27;;
9034;SDS011;4552;43.422;24.592;2024-02-21T00:44:22;15.60;;;9.57;;
9034;SDS011;4552;43.422;24.592;2024-02-21T00:46:48;15.70;;;8.77;;
9034;SDS011;4552;43.422;24.592;2024-02-21T00:49:16;13.07;;;8.27;;
9034;SDS011;4552;43.422;24.592;2024-02-21T00:51:43;15.23;;;8.20;;
9034;SDS011;4552;43.422;24.592;2024-02-21T00:54:09;13.27;;;8.20;;
9034;SDS011;4552;43.422;24.592;2024-02-21T00:56:38;14.10;;;8.67;;
9034;SDS011;4552;43.422;24.592;2024-02-21T00:59:05;14.57;;;8.03;;
9034;SDS011;4552;43.422;24.592;2024-02-21T01:01:32;13.30;;;8.63;;
9034;SDS011;4552;43.422;24.592;2024-02-21T01:03:59;13.20;;;8.77;;
9034;SDS011;4552;43.422;24.592;2024-02-21T01:06:26;11.97;;;8.37;;
9034;SDS011;4552;43.422;24.592;2024-02-21T01:08:52;13.40;;;7.67;;
9034;SDS011;4552;43.422;24.592;2024-02-21T01:24:21;11.73;;;7.03;;
9034;SDS011;4552;43.422;24.592;2024-02-21T01:26:49;10.90;;;6.60;;
9034;SDS011;4552;43.422;24.592;2024-02-21T01:29:16;14.33;;;7.17;;
9034;SDS011;4552;43.422;24.592;2024-02-21T01:31:43;9.90;;;7.13;;
9034;SDS011;4552;43.422;24.592;2024-02-21T01:34:10;11.10;;;7.33;;
9034;SDS011;4552;43.422;24.592;2024-02-21T01:36:38;11.33;;;7.10;;
9034;SDS011;4552;43.422;24.592;2024-02-21T01:39:08;11.70;;;7.23;;
9034;SDS011;4552;43.422;24.592;2024-02-21T01:41:35;9.03;;;6.40;;
9034;SDS011;4552;43.422;24.592;2024-02-21T01:44:02;11.33;;;7.17;;
9034;SDS011;4552;43.422;24.592;2024-02-21T01:46:28;13.07;;;7.30;;
9034;SDS011;4552;43.422;24.592;2024-02-21T01:48:56;15.40;;;7.10;;
9034;SDS011;4552;43.422;24.592;2024-02-21T01:51:26;12.13;;;7.10;;
9034;SDS011;4552;43.422;24.592;2024-02-21T01:53:55;15.30;;;6.97;;
9034;SDS011;4552;43.422;24.592;2024-02-21T01:59:55;11.23;;;6.83;;
9034;SDS011;4552;43.422;24.592;2024-02-21T02:02:22;9.23;;;6.40;;
9034;SDS011;4552;43.422;24.592;2024-02-21T02:04:49;11.03;;;7.67;;
9034;SDS011;4552;43.422;24.592;2024-02-21T02:07:18;12.80;;;8.00;;
9034;SDS011;4552;43.422;24.592;2024-02-21T02:09:45;11.73;;;7.50;;
9034;SDS011;4552;43.422;24.592;2024-02-21T02:12:12;15.77;;;7.47;;
9034;SDS011;4552;43.422;24.592;2024-02-21T02:14:39;16.70;;;8.33;;
9034;SDS011;4552;43.422;24.592;2024-02-21T02:17:09;15.90;;;9.47;;
9034;SDS011;4552;43.422;24.592;2024-02-21T02:19:42;15.87;;;8.27;;
9034;SDS011;4552;43.422;24.592;2024-02-21T02:22:09;13.30;;;9.03;;
9034;SDS011;4552;43.422;24.592;2024-02-21T02:24:48;12.03;;;7.83;;
9034;SDS011;4552;43.422;24.592;2024-02-21T02:33:51;14.67;;;8.77;;
9034;SDS011;4552;43.422;24.592;2024-02-21T02:36:18;11.73;;;7.50;;
9034;SDS011;4552;43.422;24.592;2024-02-21T02:38:45;13.40;;;8.13;;
9034;SDS011;4552;43.422;24.592;2024-02-21T03:01:24;15.43;;;8.53;;
9034;SDS011;4552;43.422;24.592;2024-02-21T03:03:51;10.93;;;7.50;;
9034;SDS011;4552;43.422;24.592;2024-02-21T03:06:17;13.87;;;8.43;;
9034;SDS011;4552;43.422;24.592;2024-02-21T03:08:44;11.47;;;8.13;;
9034;SDS011;4552;43.422;24.592;2024-02-21T03:11:21;14.60;;;7.53;;
9034;SDS011;4552;43.422;24.592;2024-02-21T03:13:54;10.20;;;6.63;;
9034;SDS011;4552;43.422;24.592;2024-02-21T03:16:23;15.47;;;7.47;;
9034;SDS011;4552;43.422;24.592;2024-02-21T03:18:51;11.27;;;7.47;;
9034;SDS011;4552;43.422;24.592;2024-02-21T03:21:18;11.47;;;7.80;;
9034;SDS011;4552;43.422;24.592;2024-02-21T03:23:45;12.80;;;7.17;;
9034;SDS011;4552;43.422;24.592;2024-02-21T04:32:51;7.17;;;4.67;;
9034;SDS011;4552;43.422;24.592;2024-02-21T04:35:18;5.93;;;4.60;;
9034;SDS011;4552;43.422;24.592;2024-02-21T04:37:45;7.87;;;4.57;;
9034;SDS011;4552;43.422;24.592;2024-02-21T04:40:13;7.17;;;4.30;;
9034;SDS011;4552;43.422;24.592;2024-02-21T04:42:42;7.40;;;5.23;;
9034;SDS011;4552;43.422;24.592;2024-02-21T04:45:09;7.50;;;5.70;;
9034;SDS011;4552;43.422;24.592;2024-02-21T05:00:30;6.03;;;4.53;;
9034;SDS011;4552;43.422;24.592;2024-02-21T05:02:59;5.37;;;4.30;;
9034;SDS011;4552;43.422;24.592;2024-02-21T05:05:27;7.30;;;4.47;;
9034;SDS011;4552;43.422;24.592;2024-02-21T05:07:55;5.20;;;4.67;;
9034;SDS011;4552;43.422;24.592;2024-02-21T05:10:27;10.50;;;5.43;;
9034;SDS011;4552;43.422;24.592;2024-02-21T05:13:04;7.63;;;4.60;;
9034;SDS011;4552;43.422;24.592;2024-02-21T05:16:11;8.03;;;5.53;;
9034;SDS011;4552;43.422;24.592;2024-02-21T05:18:38;6.13;;;4.70;;
9034;SDS011;4552;43.422;24.592;2024-02-21T05:21:07;6.73;;;4.73;;
9034;SDS011;4552;43.422;24.592;2024-02-21T05:23:35;6.83;;;5.20;;
9034;SDS011;4552;43.422;24.592;2024-02-21T05:26:04;11.00;;;6.40;;
9034;SDS011;4552;43.422;24.592;2024-02-21T05:28:31;7.30;;;6.03;;
9034;SDS011;4552;43.422;24.592;2024-02-21T05:30:58;10.47;;;5.13;;
9034;SDS011;4552;43.422;24.592;2024-02-21T05:33:27;5.70;;;4.27;;
9034;SDS011;4552;43.422;24.592;2024-02-21T05:35:53;7.20;;;5.20;;
9034;SDS011;4552;43.422;24.592;2024-02-21T05:38:20;7.47;;;5.10;;
9034;SDS011;4552;43.422;24.592;2024-02-21T05:40:47;8.33;;;5.20;;
9034;SDS011;4552;43.422;24.592;2024-02-21T05:43:14;8.33;;;5.50;;
9034;SDS011;4552;43.422;24.592;2024-02-21T05:45:41;8.73;;;5.50;;
9034;SDS011;4552;43.422;24.592;2024-02-21T05:51:50;6.53;;;4.33;;
9034;SDS011;4552;43.422;24.592;2024-02-21T05:54:17;7.73;;;4.97;;
9034;SDS011;4552;43.422;24.592;2024-02-21T05:56:44;6.83;;;5.87;;
9034;SDS011;4552;43.422;24.592;2024-02-21T05:59:15;8.93;;;5.47;;
9034;SDS011;4552;43.422;24.592;2024-02-21T06:01:42;7.13;;;5.47;;
9034;SDS011;4552;43.422;24.592;2024-02-21T06:04:09;7.50;;;5.17;;
9034;SDS011;4552;43.422;24.592;2024-02-21T06:06:36;8.03;;;5.10;;
9034;SDS011;4552;43.422;24.592;2024-02-21T06:09:05;6.90;;;4.87;;
9034;SDS011;4552;43.422;24.592;2024-02-21T06:11:31;5.83;;;4.50;;
9034;SDS011;4552;43.422;24.592;2024-02-21T06:14:00;5.33;;;4.53;;
9034;SDS011;4552;43.422;24.592;2024-02-21T06:16:27;7.07;;;4.73;;
9034;SDS011;4552;43.422;24.592;2024-02-21T07:49:53;12.93;;;8.67;;
9034;SDS011;4552;43.422;24.592;2024-02-21T07:52:21;11.93;;;8.57;;
9034;SDS011;4552;43.422;24.592;2024-02-21T07:54:48;14.53;;;9.73;;
9034;SDS011;4552;43.422;24.592;2024-02-21T07:57:15;11.67;;;8.33;;
9034;SDS011;4552;43.422;24.592;2024-02-21T07:59:42;15.37;;;9.37;;
9034;SDS011;4552;43.422;24.592;2024-02-21T08:15:35;9.23;;;7.00;;
9034;SDS011;4552;43.422;24.592;2024-02-21T08:18:04;9.07;;;6.90;;
9034;SDS011;4552;43.422;24.592;2024-02-21T08:20:32;11.47;;;7.07;;
9034;SDS011;4552;43.422;24.592;2024-02-21T08:22:59;13.57;;;8.20;;
9034;SDS011;4552;43.422;24.592;2024-02-21T08:25:26;10.13;;;7.43;;
9034;SDS011;4552;43.422;24.592;2024-02-21T08:27:54;10.33;;;7.17;;
9034;SDS011;4552;43.422;24.592;2024-02-21T08:30:23;9.33;;;6.37;;
9034;SDS011;4552;43.422;24.592;2024-02-21T08:32:52;9.73;;;7.27;;
9034;SDS011;4552;43.422;24.592;2024-02-21T08:35:19;9.03;;;7.07;;
9034;SDS011;4552;43.422;24.592;2024-02-21T08:37:47;9.53;;;7.10;;
9034;SDS011;4552;43.422;24.592;2024-02-21T08:40:14;10.00;;;6.97;;
9034;SDS011;4552;43.422;24.592;2024-02-21T08:42:44;11.00;;;7.97;;
9034;SDS011;4552;43.422;24.592;2024-02-21T08:45:11;12.13;;;8.03;;
9034;SDS011;4552;43.422;24.592;2024-02-21T08:47:39;9.40;;;6.60;;
9034;SDS011;4552;43.422;24.592;2024-02-21T08:50:08;8.10;;;6.63;;
9034;SDS011;4552;43.422;24.592;2024-02-21T08:52:36;15.70;;;6.93;;
9034;SDS011;4552;43.422;24.592;2024-02-21T08:55:03;8.20;;;6.20;;
9034;SDS011;4552;43.422;24.592;2024-02-21T08:57:31;9.63;;;6.67;;
9034;SDS011;4552;43.422;24.592;2024-02-21T09:00:02;9.23;;;6.33;;
9034;SDS011;4552;43.422;24.592;2024-02-21T09:02:34;11.43;;;6.67;;
9034;SDS011;4552;43.422;24.592;2024-02-21T09:05:03;11.43;;;7.07;;
9034;SDS011;4552;43.422;24.592;2024-02-21T09:07:32;9.90;;;7.07;;
9034;SDS011;4552;43.422;24.592;2024-02-21T09:09:59;12.13;;;8.10;;
9034;SDS011;4552;43.422;24.592;2024-02-21T09:12:28;12.00;;;7.23;;
9034;SDS011;4552;43.422;24.592;2024-02-21T09:31:46;11.97;;;7.80;;
9034;SDS011;4552;43.422;24.592;2024-02-21T09:34:13;9.87;;;7.37;;
9034;SDS011;4552;43.422;24.592;2024-02-21T09:36:40;10.37;;;7.77;;
9034;SDS011;4552;43.422;24.592;2024-02-21T09:39:08;9.70;;;7.60;;
9034;SDS011;4552;43.422;24.592;2024-02-21T09:41:40;9.37;;;7.37;;
9034;SDS011;4552;43.422;24.592;2024-02-21T09:44:11;9.97;;;6.93;;
9034;SDS011;4552;43.422;24.592;2024-02-21T09:46:42;10.03;;;6.90;;
9034;SDS011;4552;43.422;24.592;2024-02-21T10:03:18;9.17;;;7.03;;
9034;SDS011;4552;43.422;24.592;2024-02-21T10:05:47;8.00;;;5.80;;
9034;SDS011;4552;43.422;24.592;2024-02-21T10:08:16;7.90;;;6.30;;
9034;SDS011;4552;43.422;24.592;2024-02-21T10:10:44;7.50;;;6.03;;
9034;SDS011;4552;43.422;24.592;2024-02-21T10:13:23;10.20;;;7.20;;
9034;SDS011;4552;43.422;24.592;2024-02-21T10:16:02;9.37;;;6.33;;
9034;SDS011;4552;43.422;24.592;2024-02-21T10:28:37;12.70;;;7.10;;
9034;SDS011;4552;43.422;24.592;2024-02-21T10:31:07;10.73;;;7.67;;
9034;SDS011;4552;43.422;24.592;2024-02-21T10:40:19;10.27;;;6.60;;
9034;SDS011;4552;43.422;24.592;2024-02-21T10:42:46;10.03;;;6.53;;
9034;SDS011;4552;43.422;24.592;2024-02-21T10:45:18;11.13;;;7.57;;
9034;SDS011;4552;43.422;24.592;2024-02-21T10:47:47;7.40;;;6.33;;
9034;SDS011;4552;43.422;24.592;2024-02-21T10:50:17;9.70;;;5.93;;
9034;SDS011;4552;43.422;24.592;2024-02-21T10:52:48;9.70;;;5.70;;
9034;SDS011;4552;43.422;24.592;2024-02-21T10:55:24;7.47;;;6.00;;
9034;SDS011;4552;43.422;24.592;2024-02-21T10:58:00;8.70;;;6.77;;
9034;SDS011;4552;43.422;24.592;2024-02-21T11:00:30;8.47;;;6.27;;
9034;SDS011;4552;43.422;24.592;2024-02-21T11:02:57;9.07;;;6.70;;
9034;SDS011;4552;43.422;24.592;2024-02-21T11:05:26;8.80;;;5.07;;
9034;SDS011;4552;43.422;24.592;2024-02-21T11:07:54;4.93;;;4.10;;
9034;SDS011;4552;43.422;24.592;2024-02-21T11:10:22;6.27;;;4.10;;
9034;SDS011;4552;43.422;24.592;2024-02-21T11:12:52;5.60;;;4.30;;
9034;SDS011;4552;43.422;24.592;2024-02-21T11:15:24;7.47;;;4.20;;
9034;SDS011;4552;43.422;24.592;2024-02-21T11:34:42;9.40;;;3.90;;
9034;SDS011;4552;43.422;24.592;2024-02-21T11:37:20;5.10;;;3.70;;
9034;SDS011;4552;43.422;24.592;2024-02-21T11:39:47;7.33;;;4.10;;
9034;SDS011;4552;43.422;24.592;2024-02-21T11:42:18;6.23;;;4.27;;
9034;SDS011;4552;43.422;24.592;2024-02-21T11:44:51;5.43;;;4.10;;
9034;SDS011;4552;43.422;24.592;2024-02-21T11:53:31;5.13;;;4.13;;
9034;SDS011;4552;43.422;24.592;2024-02-21T11:56:01;6.20;;;3.73;;
9034;SDS011;4552;43.422;24.592;2024-02-21T11:58:32;5.67;;;4.03;;
9034;SDS011;4552;43.422;24.592;2024-02-21T12:01:08;6.07;;;4.30;;
9034;SDS011;4552;43.422;24.592;2024-02-21T12:13:06;6.20;;;3.73;;
9034;SDS011;4552;43.422;24.592;2024-02-21T12:15:34;5.47;;;3.93;;
9034;SDS011;4552;43.422;24.592;2024-02-21T12:20:51;5.30;;;3.67;;
9034;SDS011;4552;43.422;24.592;2024-02-21T12:23:34;5.10;;;3.50;;
9034;SDS011;4552;43.422;24.592;2024-02-21T12:26:17;4.43;;;3.60;;
9034;SDS011;4552;43.422;24.592;2024-02-21T12:28:44;6.30;;;3.90;;
9034;SDS011;4552;43.422;24.592;2024-02-21T12:31:11;6.63;;;3.47;;
9034;SDS011;4552;43.422;24.592;2024-02-21T12:47:07;6.00;;;4.43;;
9034;SDS011;4552;43.422;24.592;2024-02-21T12:49:34;7.17;;;4.27;;
9034;SDS011;4552;43.422;24.592;2024-02-21T12:52:02;6.03;;;4.20;;
9034;SDS011;4552;43.422;24.592;2024-02-21T12:54:30;5.43;;;4.50;;
9034;SDS011;4552;43.422;24.592;2024-02-21T12:56:59;7.28;;;5.25;;
9034;SDS011;4552;43.422;24.592;2024-02-21T12:59:28;10.20;;;7.87;;
9034;SDS011;4552;43.422;24.592;2024-02-21T13:01:55;7.37;;;5.27;;
9034;SDS011;4552;43.422;24.592;2024-02-21T13:24:34;7.17;;;5.73;;
9034;SDS011;4552;43.422;24.592;2024-02-21T13:27:01;9.17;;;6.57;;
9034;SDS011;4552;43.422;24.592;2024-02-21T13:29:29;9.13;;;6.80;;
9034;SDS011;4552;43.422;24.592;2024-02-21T13:31:56;8.70;;;6.37;;
9034;SDS011;4552;43.422;24.592;2024-02-21T13:34:23;8.83;;;5.80;;
9034;SDS011;4552;43.422;24.592;2024-02-21T13:36:50;11.23;;;7.83;;
9034;SDS011;4552;43.422;24.592;2024-02-21T13:39:17;9.00;;;6.03;;
9034;SDS011;4552;43.422;24.592;2024-02-21T13:41:47;7.70;;;5.87;;
9034;SDS011;4552;43.422;24.592;2024-02-21T13:44:16;7.83;;;5.70;;
9034;SDS011;4552;43.422;24.592;2024-02-21T13:46:44;8.80;;;5.63;;
9034;SDS011;4552;43.422;24.592;2024-02-21T13:52:32;9.20;;;6.73;;
9034;SDS011;4552;43.422;24.592;2024-02-21T13:54:59;9.97;;;6.20;;
9034;SDS011;4552;43.422;24.592;2024-02-21T13:57:28;9.17;;;6.10;;
9034;SDS011;4552;43.422;24.592;2024-02-21T13:59:55;8.50;;;6.23;;
9034;SDS011;4552;43.422;24.592;2024-02-21T14:02:22;11.03;;;6.60;;
9034;SDS011;4552;43.422;24.592;2024-02-21T14:04:49;9.63;;;6.60;;
9034;SDS011;4552;43.422;24.592;2024-02-21T14:07:16;8.83;;;5.93;;
9034;SDS011;4552;43.422;24.592;2024-02-21T14:09:57;9.60;;;6.23;;
9034;SDS011;4552;43.422;24.592;2024-02-21T14:12:24;10.10;;;6.93;;
9034;SDS011;4552;43.422;24.592;2024-02-21T14:14:52;10.50;;;6.50;;
9034;SDS011;4552;43.422;24.592;2024-02-21T14:17:20;10.57;;;7.10;;
9034;SDS011;4552;43.422;24.592;2024-02-21T14:19:47;10.07;;;6.67;;
9034;SDS011;4552;43.422;24.592;2024-02-21T14:22:14;5.67;;;4.50;;
9034;SDS011;4552;43.422;24.592;2024-02-21T14:24:41;6.87;;;4.57;;
9034;SDS011;4552;43.422;24.592;2024-02-21T14:27:09;9.17;;;5.70;;
9034;SDS011;4552;43.422;24.592;2024-02-21T14:29:45;7.20;;;4.07;;
9034;SDS011;4552;43.422;24.592;2024-02-21T14:32:27;5.80;;;4.07;;
9034;SDS011;4552;43.422;24.592;2024-02-21T14:41:37;7.33;;;4.63;;
9034;SDS011;4552;43.422;24.592;2024-02-21T14:44:04;7.17;;;4.47;;
9034;SDS011;4552;43.422;24.592;2024-02-21T14:46:35;7.07;;;5.47;;
9034;SDS011;4552;43.422;24.592;2024-02-21T14:55:50;7.23;;;4.30;;
9034;SDS011;4552;43.422;24.592;2024-02-21T14:58:17;6.97;;;4.83;;
9034;SDS011;4552;43.422;24.592;2024-02-21T15:06:40;6.57;;;5.10;;
9034;SDS011;4552;43.422;24.592;2024-02-21T15:17:33;6.63;;;4.27;;
9034;SDS011;4552;43.422;24.592;2024-02-21T15:23:32;7.23;;;4.87;;
9034;SDS011;4552;43.422;24.592;2024-02-21T15:26:11;5.73;;;4.77;;
9034;SDS011;4552;43.422;24.592;2024-02-21T15:28:40;7.70;;;5.40;;
9034;SDS011;4552;43.422;24.592;2024-02-21T15:34:20;5.77;;;4.63;;
9034;SDS011;4552;43.422;24.592;2024-02-21T15:37:02;7.50;;;5.03;;
9034;SDS011;4552;43.422;24.592;2024-02-21T15:39:30;11.50;;;6.20;;
9034;SDS011;4552;43.422;24.592;2024-02-21T15:41:58;9.27;;;6.10;;
9034;SDS011;4552;43.422;24.592;2024-02-21T15:44:39;10.60;;;6.80;;
9034;SDS011;4552;43.422;24.592;2024-02-21T15:47:09;7.90;;;5.43;;
9034;SDS011;4552;43.422;24.592;2024-02-21T15:53:00;8.33;;;4.63;;
9034;SDS011;4552;43.422;24.592;2024-02-21T15:55:28;6.60;;;4.23;;
9034;SDS011;4552;43.422;24.592;2024-02-21T15:57:55;6.23;;;4.03;;
9034;SDS011;4552;43.422;24.592;2024-02-21T16:00:23;6.10;;;4.03;;
9034;SDS011;4552;43.422;24.592;2024-02-21T16:25:51;5.77;;;4.27;;
9034;SDS011;4552;43.422;24.592;2024-02-21T16:28:19;5.77;;;3.83;;
9034;SDS011;4552;43.422;24.592;2024-02-21T16:39:31;5.37;;;3.97;;
9034;SDS011;4552;43.422;24.592;2024-02-21T16:47:07;5.83;;;4.03;;
9034;SDS011;4552;43.422;24.592;2024-02-21T16:52:57;7.53;;;4.90;;
9034;SDS011;4552;43.422;24.592;2024-02-21T16:55:35;5.17;;;4.10;;
9034;SDS011;4552;43.422;24.592;2024-02-21T16:58:12;5.67;;;4.27;;
9034;SDS011;4552;43.422;24.592;2024-02-21T17:00:49;5.87;;;3.83;;
9034;SDS011;4552;43.422;24.592;2024-02-21T17:12:11;5.37;;;3.90;;
9034;SDS011;4552;43.422;24.592;2024-02-21T17:14:41;4.93;;;3.53;;
9034;SDS011;4552;43.422;24.592;2024-02-21T17:17:11;5.73;;;3.93;;
9034;SDS011;4552;43.422;24.592;2024-02-21T17:19:41;8.33;;;3.87;;
9034;SDS011;4552;43.422;24.592;2024-02-21T17:22:13;6.13;;;3.97;;
9034;SDS011;4552;43.422;24.592;2024-02-21T17:48:02;6.30;;;4.20;;
9034;SDS011;4552;43.422;24.592;2024-02-21T17:59:38;6.37;;;4.30;;
9034;SDS011;4552;43.422;24.592;2024-02-21T18:02:07;5.53;;;4.27;;
9034;SDS011;4552;43.422;24.592;2024-02-21T18:07:57;5.03;;;3.80;;
9034;SDS011;4552;43.422;24.592;2024-02-21T18:10:24;7.17;;;3.80;;
9034;SDS011;4552;43.422;24.592;2024-02-21T18:12:52;6.07;;;4.23;;
9034;SDS011;4552;43.422;24.592;2024-02-21T18:15:19;5.13;;;4.00;;
9034;SDS011;4552;43.422;24.592;2024-02-21T18:17:48;5.43;;;4.30;;
9034;SDS011;4552;43.422;24.592;2024-02-21T18:30:23;4.70;;;3.30;;
9034;SDS011;4552;43.422;24.592;2024-02-21T18:32:50;6.53;;;3.77;;
9034;SDS011;4552;43.422;24.592;2024-02-21T18:35:17;3.93;;;2.93;;
9034;SDS011;4552;43.422;24.592;2024-02-21T18:37:45;4.50;;;3.23;;
9034;SDS011;4552;43.422;24.592;2024-02-21T18:40:16;5.47;;;3.73;;
9034;SDS011;4552;43.422;24.592;2024-02-21T18:42:43;4.40;;;3.50;;
9034;SDS011;4552;43.422;24.592;2024-02-21T18:45:12;5.17;;;3.67;;
9034;SDS011;4552;43.422;24.592;2024-02-21T18:47:42;6.33;;;3.83;;
9034;SDS011;4552;43.422;24.592;2024-02-21T18:53:31;4.53;;;3.67;;
9034;SDS011;4552;43.422;24.592;2024-02-21T18:55:59;5.83;;;4.30;;
9034;SDS011;4552;43.422;24.592;2024-02-21T18:58:30;5.53;;;4.03;;
9034;SDS011;4552;43.422;24.592;2024-02-21T19:00:57;4.27;;;3.70;;
9034;SDS011;4552;43.422;24.592;2024-02-21T19:03:26;3.90;;;3.30;;
9034;SDS011;4552;43.422;24.592;2024-02-21T19:05:53;4.77;;;3.40;;
9034;SDS011;4552;43.422;24.592;2024-02-21T19:08:21;5.43;;;3.80;;
9034;SDS011;4552;43.422;24.592;2024-02-21T19:10:48;4.18;;;3.28;;
9034;SDS011;4552;43.422;24.592;2024-02-21T19:13:15;4.83;;;3.83;;
9034;SDS011;4552;43.422;24.592;2024-02-21T19:15:46;5.30;;;3.50;;
9034;SDS011;4552;43.422;24.592;2024-02-21T19:18:14;5.90;;;3.67;;
9034;SDS011;4552;43.422;24.592;2024-02-21T19:23:23;4.43;;;3.53;;
9034;SDS011;4552;43.422;24.592;2024-02-21T19:26:07;4.43;;;3.60;;
9034;SDS011;4552;43.422;24.592;2024-02-21T19:28:37;5.13;;;3.40;;
9034;SDS011;4552;43.422;24.592;2024-02-21T19:31:07;6.10;;;3.40;;
9034;SDS011;4552;43.422;24.592;2024-02-21T19:53:48;3.53;;;3.17;;
9034;SDS011;4552;43.422;24.592;2024-02-21T19:56:15;4.20;;;3.30;;
9034;SDS011;4552;43.422;24.592;2024-02-21T19:58:42;4.97;;;3.47;;
9034;SDS011;4552;43.422;24.592;2024-02-21T20:01:10;4.03;;;3.20;;
9034;SDS011;4552;43.422;24.592;2024-02-21T20:10:32;3.97;;;3.13;;
9034;SDS011;4552;43.422;24.592;2024-02-21T20:13:02;6.17;;;3.87;;
9034;SDS011;4552;43.422;24.592;2024-02-21T20:15:30;4.37;;;3.07;;
9034;SDS011;4552;43.422;24.592;2024-02-21T20:17:57;4.63;;;3.63;;
9034;SDS011;4552;43.422;24.592;2024-02-21T20:36:58;3.67;;;2.87;;
9034;SDS011;4552;43.422;24.592;2024-02-21T20:39:28;5.47;;;3.43;;
9034;SDS011;4552;43.422;24.592;2024-02-21T20:42:02;4.27;;;3.30;;
9034;SDS011;4552;43.422;24.592;2024-02-21T20:44:30;3.77;;;3.20;;
9034;SDS011;4552;43.422;24.592;2024-02-21T20:46:57;3.30;;;2.97;;
9034;SDS011;4552;43.422;24.592;2024-02-21T20:52:49;5.17;;;3.70;;
9034;SDS011;4552;43.422;24.592;2024-02-21T20:55:16;3.37;;;3.00;;
9034;SDS011;4552;43.422;24.592;2024-02-21T20:57:49;3.53;;;2.70;;
9034;SDS011;4552;43.422;24.592;2024-02-21T21:00:21;4.00;;;3.00;;
9034;SDS011;4552;43.422;24.592;2024-02-21T21:02:48;3.20;;;2.87;;
9034;SDS011;4552;43.422;24.592;2024-02-21T21:05:16;3.60;;;3.23;;
9034;SDS011;4552;43.422;24.592;2024-02-21T21:07:51;4.17;;;3.30;;
9034;SDS011;4552;43.422;24.592;2024-02-21T21:13:00;3.73;;;3.03;;
9034;SDS011;4552;43.422;24.592;2024-02-21T21:15:28;3.97;;;2.70;;
9034;SDS011;4552;43.422;24.592;2024-02-21T21:17:55;2.70;;;2.33;;
9034;SDS011;4552;43.422;24.592;2024-02-21T21:44:36;2.90;;;2.57;;
9034;SDS011;4552;43.422;24.592;2024-02-21T21:47:03;2.67;;;2.40;;
9034;SDS011;4552;43.422;24.592;2024-02-21T22:17:05;2.37;;;2.10;;
9034;SDS011;4552;43.422;24.592;2024-02-21T22:19:32;3.70;;;2.50;;
9034;SDS011;4552;43.422;24.592;2024-02-21T22:21:59;2.53;;;2.27;;
9034;SDS011;4552;43.422;24.592;2024-02-21T22:24:29;2.77;;;2.27;;
9034;SDS011;4552;43.422;24.592;2024-02-21T22:26:56;2.23;;;2.03;;
9034;SDS011;4552;43.422;24.592;2024-02-21T22:29:24;2.17;;;1.97;;
9034;SDS011;4552;43.422;24.592;2024-02-21T22:31:51;2.47;;;1.97;;
9034;SDS011;4552;43.422;24.592;2024-02-21T22:44:25;2.33;;;2.10;;
9034;SDS011;4552;43.422;24.592;2024-02-21T22:46:52;3.70;;;2.70;;
9034;SDS011;4552;43.422;24.592;2024-02-21T23:02:48;2.20;;;1.83;;
9034;SDS011;4552;43.422;24.592;2024-02-21T23:05:19;2.53;;;2.30;;
9034;SDS011;4552;43.422;24.592;2024-02-21T23:07:48;1.80;;;1.70;;
9034;SDS011;4552;43.422;24.592;2024-02-21T23:10:17;2.20;;;1.90;;
9034;SDS011;4552;43.422;24.592;2024-02-21T23:12:48;2.50;;;2.17;;
9034;SDS011;4552;43.422;24.592;2024-02-21T23:15:15;2.40;;;2.20;;
9034;SDS011;4552;43.422;24.592;2024-02-21T23:17:42;2.20;;;2.00;;
9034;SDS011;4552;43.422;24.592;2024-02-21T23:30:16;2.33;;;2.07;;
9034;SDS011;4552;43.422;24.592;2024-02-21T23:32:43;2.07;;;1.93;;
9034;SDS011;4552;43.422;24.592;2024-02-21T23:35:11;1.80;;;1.70;;
9034;SDS011;4552;43.422;24.592;2024-02-21T23:37:38;2.00;;;1.53;;
9034;SDS011;4552;43.422;24.592;2024-02-21T23:40:05;2.10;;;1.90;;
9034;SDS011;4552;43.422;24.592;2024-02-21T23:42:35;2.57;;;2.07;;
9034;SDS011;4552;43.422;24.592;2024-02-21T23:45:05;1.93;;;1.83;;
9034;SDS011;4552;43.422;24.592;2024-02-21T23:47:37;2.10;;;1.87;;
9034;SDS011;4552;43.422;24.592;2024-02-21T23:50:04;2.00;;;1.77;;
9034;SDS011;4552;43.422;24.592;2024-02-21T23:52:32;2.60;;;1.77;;
9034;SDS011;4552;43.422;24.592;2024-02-21T23:54:59;3.50;;;2.10;;
9034;SDS011;4552;43.422;24.592;2024-02-21T23:57:27;1.87;;;1.77;;
9034;SDS011;4552;43.422;24.592;2024-02-21T23:59:54;4.50;;;3.17;;
